sensor_id;sensor_type;location;lat;lon;timestamp;temperature;humidity
35463;DHT22;21578;47.892;9.970;2023-04-01T00:01:05;6.50;96.60
35463;DHT22;21578;47.892;9.970;2023-04-01T00:05:53;6.50;96.60
35463;DHT22;21578;47.892;9.970;2023-04-01T00:10:42;6.40;96.60
35463;DHT22;21578;47.892;9.970;2023-04-01T00:15:28;6.30;96.60
35463;DHT22;21578;47.892;9.970;2023-04-01T00:20:16;6.30;96.60
35463;DHT22;21578;47.892;9.970;2023-04-01T00:25:03;6.20;96.60
35463;DHT22;21578;47.892;9.970;2023-04-01T00:29:52;6.10;96.60
35463;DHT22;21578;47.892;9.970;2023-04-01T00:34:38;6.10;96.60
35463;DHT22;21578;47.892;9.970;2023-04-01T00:39:28;6.10;96.60
35463;DHT22;21578;47.892;9.970;2023-04-01T00:44:18;6.10;96.60
35463;DHT22;21578;47.892;9.970;2023-04-01T00:49:07;6.00;96.60
35463;DHT22;21578;47.892;9.970;2023-04-01T00:53:56;6.00;96.60
35463;DHT22;21578;47.892;9.970;2023-04-01T00:58:47;6.00;96.60
35463;DHT22;21578;47.892;9.970;2023-04-01T01:03:35;5.90;96.60
35463;DHT22;21578;47.892;9.970;2023-04-01T01:08:30;5.90;96.60
35463;DHT22;21578;47.892;9.970;2023-04-01T01:13:26;5.90;96.60
35463;DHT22;21578;47.892;9.970;2023-04-01T01:18:21;5.80;96.60
35463;DHT22;21578;47.892;9.970;2023-04-01T01:23:45;5.90;96.60
35463;DHT22;21578;47.892;9.970;2023-04-01T01:28:44;5.80;96.60
35463;DHT22;21578;47.892;9.970;2023-04-01T01:33:57;5.70;96.60
35463;DHT22;21578;47.892;9.970;2023-04-01T01:38:49;5.50;96.60
35463;DHT22;21578;47.892;9.970;2023-04-01T01:43:40;5.40;96.60
35463;DHT22;21578;47.892;9.970;2023-04-01T01:48:29;5.40;96.60
35463;DHT22;21578;47.892;9.970;2023-04-01T01:53:16;5.40;96.60
35463;DHT22;21578;47.892;9.970;2023-04-01T01:58:09;5.30;96.60
35463;DHT22;21578;47.892;9.970;2023-04-01T02:02:58;5.40;96.60
35463;DHT22;21578;47.892;9.970;2023-04-01T02:07:49;5.30;96.60
35463;DHT22;21578;47.892;9.970;2023-04-01T02:12:41;5.30;96.60
35463;DHT22;21578;47.892;9.970;2023-04-01T02:17:31;5.30;96.60
35463;DHT22;21578;47.892;9.970;2023-04-01T02:22:22;5.20;96.60
35463;DHT22;21578;47.892;9.970;2023-04-01T02:27:10;5.20;96.60
35463;DHT22;21578;47.892;9.970;2023-04-01T02:31:58;5.30;96.60
35463;DHT22;21578;47.892;9.970;2023-04-01T02:36:47;5.30;96.60
35463;DHT22;21578;47.892;9.970;2023-04-01T02:41:39;5.30;96.60
35463;DHT22;21578;47.892;9.970;2023-04-01T02:46:26;5.30;96.60
35463;DHT22;21578;47.892;9.970;2023-04-01T02:51:13;5.30;96.60
35463;DHT22;21578;47.892;9.970;2023-04-01T02:56:01;5.30;96.60
35463;DHT22;21578;47.892;9.970;2023-04-01T03:00:48;5.30;96.60
35463;DHT22;21578;47.892;9.970;2023-04-01T03:05:35;5.40;96.60
35463;DHT22;21578;47.892;9.970;2023-04-01T03:10:22;5.40;96.60
35463;DHT22;21578;47.892;9.970;2023-04-01T03:15:12;5.40;96.60
35463;DHT22;21578;47.892;9.970;2023-04-01T03:20:00;5.40;96.60
35463;DHT22;21578;47.892;9.970;2023-04-01T03:24:49;5.40;96.60
35463;DHT22;21578;47.892;9.970;2023-04-01T03:29:36;5.40;96.60
35463;DHT22;21578;47.892;9.970;2023-04-01T03:34:25;5.40;96.60
35463;DHT22;21578;47.892;9.970;2023-04-01T03:39:12;5.40;96.60
35463;DHT22;21578;47.892;9.970;2023-04-01T03:44:01;5.40;96.60
35463;DHT22;21578;47.892;9.970;2023-04-01T03:48:48;5.50;96.60
35463;DHT22;21578;47.892;9.970;2023-04-01T03:53:37;5.50;96.60
35463;DHT22;21578;47.892;9.970;2023-04-01T03:58:24;5.50;96.60
35463;DHT22;21578;47.892;9.970;2023-04-01T04:03:11;5.50;96.60
35463;DHT22;21578;47.892;9.970;2023-04-01T04:07:58;5.50;96.60
35463;DHT22;21578;47.892;9.970;2023-04-01T04:12:46;5.50;96.60
35463;DHT22;21578;47.892;9.970;2023-04-01T04:17:33;5.50;96.60
35463;DHT22;21578;47.892;9.970;2023-04-01T04:22:20;5.50;96.60
35463;DHT22;21578;47.892;9.970;2023-04-01T04:27:07;5.50;96.60
35463;DHT22;21578;47.892;9.970;2023-04-01T04:31:56;5.50;96.60
35463;DHT22;21578;47.892;9.970;2023-04-01T04:36:43;5.50;96.60
35463;DHT22;21578;47.892;9.970;2023-04-01T04:41:37;5.50;96.60
35463;DHT22;21578;47.892;9.970;2023-04-01T04:46:24;5.50;96.60
35463;DHT22;21578;47.892;9.970;2023-04-01T04:51:14;5.50;96.60
35463;DHT22;21578;47.892;9.970;2023-04-01T04:56:02;5.50;96.60
35463;DHT22;21578;47.892;9.970;2023-04-01T05:00:49;5.50;96.60
35463;DHT22;21578;47.892;9.970;2023-04-01T05:05:36;5.50;96.60
35463;DHT22;21578;47.892;9.970;2023-04-01T05:10:25;5.60;96.60
35463;DHT22;21578;47.892;9.970;2023-04-01T05:15:12;5.60;96.60
35463;DHT22;21578;47.892;9.970;2023-04-01T05:19:59;5.60;96.60
35463;DHT22;21578;47.892;9.970;2023-04-01T05:24:46;5.60;96.60
35463;DHT22;21578;47.892;9.970;2023-04-01T05:29:36;5.70;96.60
35463;DHT22;21578;47.892;9.970;2023-04-01T05:34:23;5.60;96.60
35463;DHT22;21578;47.892;9.970;2023-04-01T05:39:10;5.70;96.60
35463;DHT22;21578;47.892;9.970;2023-04-01T05:43:57;5.70;96.60
35463;DHT22;21578;47.892;9.970;2023-04-01T05:48:45;5.70;96.60
35463;DHT22;21578;47.892;9.970;2023-04-01T05:53:32;5.60;96.60
35463;DHT22;21578;47.892;9.970;2023-04-01T05:58:19;5.50;96.60
35463;DHT22;21578;47.892;9.970;2023-04-01T06:03:06;5.50;96.60
35463;DHT22;21578;47.892;9.970;2023-04-01T06:07:58;5.60;96.60
35463;DHT22;21578;47.892;9.970;2023-04-01T06:12:58;5.60;96.60
35463;DHT22;21578;47.892;9.970;2023-04-01T06:18:02;5.60;96.60
35463;DHT22;21578;47.892;9.970;2023-04-01T06:23:09;5.70;96.60
35463;DHT22;21578;47.892;9.970;2023-04-01T06:33:24;5.80;96.60
35463;DHT22;21578;47.892;9.970;2023-04-01T06:38:29;5.80;96.60
35463;DHT22;21578;47.892;9.970;2023-04-01T06:43:27;5.90;96.60
35463;DHT22;21578;47.892;9.970;2023-04-01T06:48:40;5.80;96.60
35463;DHT22;21578;47.892;9.970;2023-04-01T06:53:35;5.90;96.60
35463;DHT22;21578;47.892;9.970;2023-04-01T06:58:29;5.90;96.60
35463;DHT22;21578;47.892;9.970;2023-04-01T07:03:22;6.00;96.60
35463;DHT22;21578;47.892;9.970;2023-04-01T07:08:13;6.00;96.60
35463;DHT22;21578;47.892;9.970;2023-04-01T07:13:05;6.10;96.60
35463;DHT22;21578;47.892;9.970;2023-04-01T07:17:57;6.20;96.60
35463;DHT22;21578;47.892;9.970;2023-04-01T07:22:47;6.30;96.60
35463;DHT22;21578;47.892;9.970;2023-04-01T07:27:35;6.50;96.60
35463;DHT22;21578;47.892;9.970;2023-04-01T07:32:33;6.50;96.60
35463;DHT22;21578;47.892;9.970;2023-04-01T07:37:26;6.60;96.60
35463;DHT22;21578;47.892;9.970;2023-04-01T07:42:22;6.70;96.60
35463;DHT22;21578;47.892;9.970;2023-04-01T07:47:24;6.80;96.60
35463;DHT22;21578;47.892;9.970;2023-04-01T07:52:20;6.90;96.60
35463;DHT22;21578;47.892;9.970;2023-04-01T07:57:14;7.00;96.60
35463;DHT22;21578;47.892;9.970;2023-04-01T08:02:14;7.10;96.60
35463;DHT22;21578;47.892;9.970;2023-04-01T08:07:08;7.20;96.60
35463;DHT22;21578;47.892;9.970;2023-04-01T08:12:04;7.30;96.60
35463;DHT22;21578;47.892;9.970;2023-04-01T08:17:00;7.50;96.60
35463;DHT22;21578;47.892;9.970;2023-04-01T08:21:51;7.50;96.60
35463;DHT22;21578;47.892;9.970;2023-04-01T08:26:42;7.50;96.60
35463;DHT22;21578;47.892;9.970;2023-04-01T08:31:35;7.50;96.60
35463;DHT22;21578;47.892;9.970;2023-04-01T08:36:26;7.50;96.60
35463;DHT22;21578;47.892;9.970;2023-04-01T08:41:42;7.60;96.60
35463;DHT22;21578;47.892;9.970;2023-04-01T08:46:55;7.60;96.60
35463;DHT22;21578;47.892;9.970;2023-04-01T08:51:54;7.70;96.60
35463;DHT22;21578;47.892;9.970;2023-04-01T08:56:55;7.70;96.60
35463;DHT22;21578;47.892;9.970;2023-04-01T09:02:25;7.70;96.60
35463;DHT22;21578;47.892;9.970;2023-04-01T09:07:32;7.90;96.60
35463;DHT22;21578;47.892;9.970;2023-04-01T09:12:49;7.70;96.60
35463;DHT22;21578;47.892;9.970;2023-04-01T09:17:57;7.60;96.60
35463;DHT22;21578;47.892;9.970;2023-04-01T09:23:02;7.60;96.60
35463;DHT22;21578;47.892;9.970;2023-04-01T09:27:57;7.60;96.60
35463;DHT22;21578;47.892;9.970;2023-04-01T09:38:22;7.50;96.60
35463;DHT22;21578;47.892;9.970;2023-04-01T09:43:27;7.40;96.60
35463;DHT22;21578;47.892;9.970;2023-04-01T09:48:24;7.30;96.60
35463;DHT22;21578;47.892;9.970;2023-04-01T09:53:20;7.20;96.60
35463;DHT22;21578;47.892;9.970;2023-04-01T09:58:33;7.10;96.60
35463;DHT22;21578;47.892;9.970;2023-04-01T10:25:28;6.60;96.60
35463;DHT22;21578;47.892;9.970;2023-04-01T10:41:30;6.50;96.60
35463;DHT22;21578;47.892;9.970;2023-04-01T10:52:00;6.50;96.60
35463;DHT22;21578;47.892;9.970;2023-04-01T10:56:57;6.50;96.60
35463;DHT22;21578;47.892;9.970;2023-04-01T11:07:49;6.70;96.60
35463;DHT22;21578;47.892;9.970;2023-04-01T11:24:00;6.70;96.60
35463;DHT22;21578;47.892;9.970;2023-04-01T11:29:22;6.80;96.60
35463;DHT22;21578;47.892;9.970;2023-04-01T11:34:35;6.70;96.60
35463;DHT22;21578;47.892;9.970;2023-04-01T11:39:32;6.80;96.60
35463;DHT22;21578;47.892;9.970;2023-04-01T11:44:23;6.80;96.60
35463;DHT22;21578;47.892;9.970;2023-04-01T11:49:28;6.90;96.60
35463;DHT22;21578;47.892;9.970;2023-04-01T11:54:32;7.00;96.60
35463;DHT22;21578;47.892;9.970;2023-04-01T11:59:57;7.10;96.60
35463;DHT22;21578;47.892;9.970;2023-04-01T12:05:08;7.10;96.60
35463;DHT22;21578;47.892;9.970;2023-04-01T12:10:10;7.10;96.60
35463;DHT22;21578;47.892;9.970;2023-04-01T12:15:14;7.00;96.60
35463;DHT22;21578;47.892;9.970;2023-04-01T12:20:18;7.00;96.60
35463;DHT22;21578;47.892;9.970;2023-04-01T12:25:22;7.00;96.60
35463;DHT22;21578;47.892;9.970;2023-04-01T12:30:30;7.00;96.60
35463;DHT22;21578;47.892;9.970;2023-04-01T12:35:22;7.00;96.60
35463;DHT22;21578;47.892;9.970;2023-04-01T12:40:24;7.10;96.60
35463;DHT22;21578;47.892;9.970;2023-04-01T12:45:28;7.20;96.60
35463;DHT22;21578;47.892;9.970;2023-04-01T12:50:26;7.20;96.60
35463;DHT22;21578;47.892;9.970;2023-04-01T12:55:36;7.10;96.60
35463;DHT22;21578;47.892;9.970;2023-04-01T13:00:42;7.20;96.60
35463;DHT22;21578;47.892;9.970;2023-04-01T13:05:54;7.30;96.60
35463;DHT22;21578;47.892;9.970;2023-04-01T13:10:56;7.30;96.60
35463;DHT22;21578;47.892;9.970;2023-04-01T13:15:46;7.30;96.60
35463;DHT22;21578;47.892;9.970;2023-04-01T13:20:44;7.40;96.60
35463;DHT22;21578;47.892;9.970;2023-04-01T13:25:38;7.40;96.60
35463;DHT22;21578;47.892;9.970;2023-04-01T13:30:32;7.30;96.60
35463;DHT22;21578;47.892;9.970;2023-04-01T13:35:30;7.30;96.60
35463;DHT22;21578;47.892;9.970;2023-04-01T13:40:30;7.30;96.60
35463;DHT22;21578;47.892;9.970;2023-04-01T13:45:23;7.50;96.60
35463;DHT22;21578;47.892;9.970;2023-04-01T13:50:38;7.60;96.60
35463;DHT22;21578;47.892;9.970;2023-04-01T13:55:46;7.60;96.60
35463;DHT22;21578;47.892;9.970;2023-04-01T14:00:50;7.70;96.60
35463;DHT22;21578;47.892;9.970;2023-04-01T14:05:54;7.70;96.60
35463;DHT22;21578;47.892;9.970;2023-04-01T14:10:46;7.70;96.60
35463;DHT22;21578;47.892;9.970;2023-04-01T14:15:44;7.70;96.60
35463;DHT22;21578;47.892;9.970;2023-04-01T14:20:37;7.80;96.60
35463;DHT22;21578;47.892;9.970;2023-04-01T14:25:53;7.70;96.60
35463;DHT22;21578;47.892;9.970;2023-04-01T14:30:59;7.60;96.60
35463;DHT22;21578;47.892;9.970;2023-04-01T14:36:01;7.60;96.60
35463;DHT22;21578;47.892;9.970;2023-04-01T14:40:56;7.50;96.60
35463;DHT22;21578;47.892;9.970;2023-04-01T14:45:55;7.50;96.60
35463;DHT22;21578;47.892;9.970;2023-04-01T14:50:47;7.50;96.60
35463;DHT22;21578;47.892;9.970;2023-04-01T14:55:47;7.60;96.60
35463;DHT22;21578;47.892;9.970;2023-04-01T15:00:48;7.70;96.60
35463;DHT22;21578;47.892;9.970;2023-04-01T15:05:44;7.70;96.60
35463;DHT22;21578;47.892;9.970;2023-04-01T15:16:03;7.60;96.60
35463;DHT22;21578;47.892;9.970;2023-04-01T15:21:03;7.60;96.60
35463;DHT22;21578;47.892;9.970;2023-04-01T15:31:15;7.60;96.60
35463;DHT22;21578;47.892;9.970;2023-04-01T15:36:11;7.60;96.60
35463;DHT22;21578;47.892;9.970;2023-04-01T15:41:11;7.60;96.60
35463;DHT22;21578;47.892;9.970;2023-04-01T15:46:29;7.60;96.60
35463;DHT22;21578;47.892;9.970;2023-04-01T15:51:30;7.60;96.60
35463;DHT22;21578;47.892;9.970;2023-04-01T15:56:44;7.60;96.60
35463;DHT22;21578;47.892;9.970;2023-04-01T16:01:43;7.60;96.60
35463;DHT22;21578;47.892;9.970;2023-04-01T16:06:49;7.70;96.60
35463;DHT22;21578;47.892;9.970;2023-04-01T16:11:50;7.70;96.60
35463;DHT22;21578;47.892;9.970;2023-04-01T16:16:52;7.70;96.60
35463;DHT22;21578;47.892;9.970;2023-04-01T16:21:46;7.60;96.60
35463;DHT22;21578;47.892;9.970;2023-04-01T16:26:38;7.60;96.60
35463;DHT22;21578;47.892;9.970;2023-04-01T16:31:31;7.60;96.60
35463;DHT22;21578;47.892;9.970;2023-04-01T16:36:27;7.50;96.60
35463;DHT22;21578;47.892;9.970;2023-04-01T16:41:18;7.60;96.60
35463;DHT22;21578;47.892;9.970;2023-04-01T16:46:18;7.60;96.60
35463;DHT22;21578;47.892;9.970;2023-04-01T16:51:13;7.40;96.60
35463;DHT22;21578;47.892;9.970;2023-04-01T16:56:10;7.40;96.60
35463;DHT22;21578;47.892;9.970;2023-04-01T17:01:01;7.40;96.60
35463;DHT22;21578;47.892;9.970;2023-04-01T17:06:02;7.30;96.60
35463;DHT22;21578;47.892;9.970;2023-04-01T17:10:53;7.30;96.60
35463;DHT22;21578;47.892;9.970;2023-04-01T17:15:48;7.30;96.60
35463;DHT22;21578;47.892;9.970;2023-04-01T17:20:42;7.30;96.60
35463;DHT22;21578;47.892;9.970;2023-04-01T17:25:41;7.20;96.60
35463;DHT22;21578;47.892;9.970;2023-04-01T17:30:37;7.20;96.60
35463;DHT22;21578;47.892;9.970;2023-04-01T17:35:32;7.10;96.60
35463;DHT22;21578;47.892;9.970;2023-04-01T17:40:36;7.10;96.60
35463;DHT22;21578;47.892;9.970;2023-04-01T17:45:30;7.00;96.60
35463;DHT22;21578;47.892;9.970;2023-04-01T17:50:24;7.00;96.60
35463;DHT22;21578;47.892;9.970;2023-04-01T17:55:30;6.90;96.60
35463;DHT22;21578;47.892;9.970;2023-04-01T18:00:25;6.80;96.60
35463;DHT22;21578;47.892;9.970;2023-04-01T18:05:39;6.70;96.60
35463;DHT22;21578;47.892;9.970;2023-04-01T18:10:37;6.70;96.60
35463;DHT22;21578;47.892;9.970;2023-04-01T18:15:32;6.60;96.60
35463;DHT22;21578;47.892;9.970;2023-04-01T18:20:31;6.50;96.60
35463;DHT22;21578;47.892;9.970;2023-04-01T18:25:24;6.40;96.60
35463;DHT22;21578;47.892;9.970;2023-04-01T18:30:17;6.40;96.60
35463;DHT22;21578;47.892;9.970;2023-04-01T18:35:19;6.40;96.60
35463;DHT22;21578;47.892;9.970;2023-04-01T18:40:16;6.30;96.60
35463;DHT22;21578;47.892;9.970;2023-04-01T18:45:18;6.20;96.60
35463;DHT22;21578;47.892;9.970;2023-04-01T18:50:15;6.20;96.60
35463;DHT22;21578;47.892;9.970;2023-04-01T18:55:36;6.10;96.60
35463;DHT22;21578;47.892;9.970;2023-04-01T19:00:28;6.10;96.60
35463;DHT22;21578;47.892;9.970;2023-04-01T19:05:23;6.10;96.60
35463;DHT22;21578;47.892;9.970;2023-04-01T19:10:31;6.10;96.60
35463;DHT22;21578;47.892;9.970;2023-04-01T19:15:31;6.10;96.60
35463;DHT22;21578;47.892;9.970;2023-04-01T19:20:24;6.10;96.60
35463;DHT22;21578;47.892;9.970;2023-04-01T19:25:23;6.10;96.60
35463;DHT22;21578;47.892;9.970;2023-04-01T19:30:18;6.10;96.60
35463;DHT22;21578;47.892;9.970;2023-04-01T19:35:19;6.00;96.60
35463;DHT22;21578;47.892;9.970;2023-04-01T19:40:30;6.00;96.60
35463;DHT22;21578;47.892;9.970;2023-04-01T19:45:29;5.90;96.60
35463;DHT22;21578;47.892;9.970;2023-04-01T19:50:28;5.90;96.60
35463;DHT22;21578;47.892;9.970;2023-04-01T19:55:29;5.90;96.60
35463;DHT22;21578;47.892;9.970;2023-04-01T20:00:23;5.90;96.60
35463;DHT22;21578;47.892;9.970;2023-04-01T20:10:31;5.80;96.60
35463;DHT22;21578;47.892;9.970;2023-04-01T20:15:26;5.70;96.60
35463;DHT22;21578;47.892;9.970;2023-04-01T20:20:19;5.80;96.60
35463;DHT22;21578;47.892;9.970;2023-04-01T20:25:13;5.80;96.60
35463;DHT22;21578;47.892;9.970;2023-04-01T20:35:35;5.70;96.60
35463;DHT22;21578;47.892;9.970;2023-04-01T20:40:32;5.60;96.60
35463;DHT22;21578;47.892;9.970;2023-04-01T20:45:31;5.60;96.60
35463;DHT22;21578;47.892;9.970;2023-04-01T20:50:23;5.70;96.60
35463;DHT22;21578;47.892;9.970;2023-04-01T21:00:45;5.70;96.60
35463;DHT22;21578;47.892;9.970;2023-04-01T21:11:20;5.80;96.60
35463;DHT22;21578;47.892;9.970;2023-04-01T21:16:19;5.80;96.60
35463;DHT22;21578;47.892;9.970;2023-04-01T21:21:25;5.70;96.60
35463;DHT22;21578;47.892;9.970;2023-04-01T21:26:43;5.80;96.60
35463;DHT22;21578;47.892;9.970;2023-04-01T21:31:51;5.70;96.60
35463;DHT22;21578;47.892;9.970;2023-04-01T21:36:52;5.60;96.60
35463;DHT22;21578;47.892;9.970;2023-04-01T21:42:13;5.60;96.60
35463;DHT22;21578;47.892;9.970;2023-04-01T21:52:52;5.50;96.60
35463;DHT22;21578;47.892;9.970;2023-04-01T22:08:53;5.50;96.60
35463;DHT22;21578;47.892;9.970;2023-04-01T22:13:47;5.40;96.60
35463;DHT22;21578;47.892;9.970;2023-04-01T22:18:38;5.40;96.60
35463;DHT22;21578;47.892;9.970;2023-04-01T22:23:32;5.40;96.60
35463;DHT22;21578;47.892;9.970;2023-04-01T22:28:28;5.40;96.60
35463;DHT22;21578;47.892;9.970;2023-04-01T22:33:22;5.40;96.60
35463;DHT22;21578;47.892;9.970;2023-04-01T22:38:26;5.30;96.60
35463;DHT22;21578;47.892;9.970;2023-04-01T22:43:24;5.30;96.60
35463;DHT22;21578;47.892;9.970;2023-04-01T22:48:18;5.30;96.60
35463;DHT22;21578;47.892;9.970;2023-04-01T22:53:18;5.20;96.60
35463;DHT22;21578;47.892;9.970;2023-04-01T22:58:11;5.20;96.60
35463;DHT22;21578;47.892;9.970;2023-04-01T23:03:11;5.20;96.60
35463;DHT22;21578;47.892;9.970;2023-04-01T23:08:20;5.10;96.60
35463;DHT22;21578;47.892;9.970;2023-04-01T23:13:16;5.10;96.60
35463;DHT22;21578;47.892;9.970;2023-04-01T23:18:20;5.10;96.60
35463;DHT22;21578;47.892;9.970;2023-04-01T23:23:19;5.00;96.60
35463;DHT22;21578;47.892;9.970;2023-04-01T23:28:40;5.00;96.60
35463;DHT22;21578;47.892;9.970;2023-04-01T23:33:30;5.00;96.60
35463;DHT22;21578;47.892;9.970;2023-04-01T23:38:22;5.00;96.60
35463;DHT22;21578;47.892;9.970;2023-04-01T23:43:14;5.00;96.60
35463;DHT22;21578;47.892;9.970;2023-04-01T23:48:01;4.90;96.60
35463;DHT22;21578;47.892;9.970;2023-04-01T23:52:54;4.90;96.60
35463;DHT22;21578;47.892;9.970;2023-04-01T23:58:00;4.90;96.60
